createdAt,value
2022-10-01T00:01:42.142Z,6.07
2022-10-01T00:05:44.253Z,5.50
2022-10-01T00:09:46.649Z,5.50
2022-10-01T00:13:48.529Z,6.97
2022-10-01T00:17:52.696Z,6.47
2022-10-01T00:21:54.490Z,6.67
2022-10-01T00:25:56.428Z,7.17
2022-10-01T00:29:58.204Z,6.80
2022-10-01T00:34:02.630Z,6.17
2022-10-01T00:38:04.539Z,6.43
2022-10-01T00:42:32.768Z,6.07
2022-10-01T00:46:41.885Z,6.03
2022-10-01T00:50:43.736Z,6.10
2022-10-01T00:54:50.850Z,6.03
2022-10-01T00:58:56.211Z,5.93
2022-10-01T01:02:58.033Z,6.40
2022-10-01T01:07:01.272Z,6.50
2022-10-01T01:12:07.296Z,6.43
2022-10-01T01:16:27.932Z,5.97
2022-10-01T01:21:02.701Z,5.80
2022-10-01T01:25:17.883Z,5.63
2022-10-01T01:29:43.249Z,6.60
2022-10-01T01:33:46.208Z,6.00
2022-10-01T01:37:53.540Z,5.97
2022-10-01T01:41:58.325Z,5.77
2022-10-01T01:46:01.444Z,6.10
2022-10-01T01:50:03.398Z,5.77
2022-10-01T01:54:05.222Z,5.97
2022-10-01T01:58:08.173Z,5.87
2022-10-01T02:02:30.458Z,5.83
2022-10-01T02:06:54.358Z,6.20
2022-10-01T02:11:35.730Z,7.57
2022-10-01T02:15:52.487Z,6.90
2022-10-01T02:20:14.404Z,7.40
2022-10-01T02:24:53.734Z,6.50
2022-10-01T02:29:01.385Z,7.10
2022-10-01T02:33:04.453Z,6.43
2022-10-01T02:37:06.360Z,7.00
2022-10-01T02:41:09.517Z,6.50
2022-10-01T02:45:11.369Z,5.30
2022-10-01T02:49:16.274Z,5.60
2022-10-01T02:53:27.602Z,5.60
2022-10-01T02:57:29.818Z,5.60
2022-10-01T03:01:32.066Z,5.57
2022-10-01T03:05:34.267Z,5.27
2022-10-01T03:09:36.932Z,6.07
2022-10-01T03:13:38.889Z,5.47
2022-10-01T03:17:40.820Z,5.50
2022-10-01T03:21:42.703Z,5.77
2022-10-01T03:25:44.684Z,5.67
2022-10-01T03:29:46.642Z,6.00
2022-10-01T03:33:48.568Z,5.83
2022-10-01T03:37:50.661Z,5.10
2022-10-01T03:41:52.512Z,6.70
2022-10-01T03:45:55.594Z,5.87
2022-10-01T03:49:57.498Z,7.37
2022-10-01T03:53:59.785Z,7.63
2022-10-01T03:58:02.276Z,6.67
2022-10-01T04:02:04.256Z,8.87
2022-10-01T04:06:06.429Z,6.57
2022-10-01T04:10:09.162Z,6.97
2022-10-01T04:14:11.074Z,7.30
2022-10-01T04:18:13.102Z,6.40
2022-10-01T04:22:15.044Z,6.17
2022-10-01T04:26:19.071Z,6.70
2022-10-01T04:30:21.217Z,6.93
2022-10-01T04:34:43.080Z,7.07
2022-10-01T04:38:45.019Z,6.87
2022-10-01T04:42:47.257Z,7.10
2022-10-01T04:46:49.231Z,7.83
2022-10-01T04:50:51.212Z,6.70
2022-10-01T04:54:53.140Z,7.27
2022-10-01T04:58:57.657Z,7.87
2022-10-01T05:02:59.657Z,6.97
2022-10-01T05:07:01.542Z,7.27
2022-10-01T05:11:03.442Z,7.87
2022-10-01T05:15:08.744Z,7.47
2022-10-01T05:19:10.814Z,7.97
2022-10-01T05:23:12.672Z,7.40
2022-10-01T05:27:14.560Z,7.67
2022-10-01T05:31:16.914Z,6.27
2022-10-01T05:35:18.929Z,8.10
2022-10-01T05:39:20.937Z,7.77
2022-10-01T05:43:22.793Z,8.17
2022-10-01T05:47:24.787Z,7.57
2022-10-01T05:51:27.303Z,7.60
2022-10-01T05:55:33.500Z,7.80
2022-10-01T05:59:35.643Z,7.30
2022-10-01T06:04:05.508Z,7.50
2022-10-01T06:08:10.341Z,9.07
2022-10-01T06:12:19.040Z,10.82
2022-10-01T06:16:39.852Z,9.20
2022-10-01T06:20:49.488Z,8.77
2022-10-01T06:25:22.651Z,7.70
2022-10-01T06:36:28.974Z,7.57
2022-10-01T06:41:38.537Z,6.93
2022-10-01T07:06:39.914Z,7.35
2022-10-01T07:10:42.246Z,7.83
2022-10-01T07:14:44.161Z,8.03
2022-10-01T07:18:46.102Z,7.07
2022-10-01T07:22:49.656Z,7.10
2022-10-01T07:26:51.766Z,7.50
2022-10-01T07:31:10.546Z,8.53
2022-10-01T07:40:27.662Z,7.30
2022-10-01T07:44:34.547Z,8.53
2022-10-01T07:48:36.945Z,8.20
2022-10-01T07:52:39.236Z,9.30
2022-10-01T07:56:42.367Z,8.60
2022-10-01T08:00:45.005Z,9.00
2022-10-01T08:05:05.444Z,7.83
2022-10-01T08:09:07.240Z,8.03
2022-10-01T08:13:16.681Z,8.33
2022-10-01T08:17:19.030Z,8.10
2022-10-01T08:21:49.647Z,8.10
2022-10-01T08:25:51.587Z,8.10
2022-10-01T08:30:33.125Z,7.57
2022-10-01T08:34:35.605Z,7.93
2022-10-01T08:38:37.913Z,7.60
2022-10-01T08:43:07.399Z,7.83
2022-10-01T08:47:42.784Z,7.00
2022-10-01T08:52:33.666Z,6.90
2022-10-01T08:56:39.423Z,6.53
2022-10-01T09:00:45.621Z,5.50
2022-10-01T09:05:25.042Z,5.90
2022-10-01T09:09:45.254Z,2.60
2022-10-01T09:14:56.523Z,2.40
2022-10-01T09:19:31.990Z,2.33
2022-10-01T09:23:48.071Z,2.20
2022-10-01T09:27:52.087Z,2.30
2022-10-01T09:31:54.234Z,2.83
2022-10-01T09:37:07.449Z,2.80
2022-10-01T09:41:20.308Z,3.23
2022-10-01T09:45:27.340Z,3.43
2022-10-01T09:49:52.405Z,2.80
2022-10-01T10:22:43.807Z,2.10
2022-10-01T10:28:09.031Z,2.60
2022-10-01T10:32:25.518Z,2.77
2022-10-01T10:37:30.841Z,2.47
2022-10-01T10:42:08.671Z,2.43
2022-10-01T10:46:10.882Z,2.57
2022-10-01T10:51:46.121Z,2.63
2022-10-01T10:56:37.167Z,2.90
2022-10-01T11:07:03.265Z,2.40
2022-10-01T11:17:12.520Z,2.90
2022-10-01T11:21:41.892Z,2.67
2022-10-01T11:26:02.886Z,2.20
2022-10-01T11:30:23.946Z,1.90
2022-10-01T11:34:42.801Z,1.80
2022-10-01T11:39:06.400Z,1.63
2022-10-01T11:43:43.115Z,2.40
2022-10-01T11:47:58.474Z,2.00
2022-10-01T11:52:49.176Z,2.40
2022-10-01T11:57:14.862Z,1.30
2022-10-01T12:01:47.636Z,1.00
2022-10-01T12:05:49.696Z,1.30
2022-10-01T12:10:23.640Z,0.97
2022-10-01T12:14:33.047Z,1.17
2022-10-01T12:19:19.455Z,1.00
2022-10-01T12:23:53.904Z,1.30
2022-10-01T12:28:04.765Z,1.93
2022-10-01T12:32:58.826Z,2.00
2022-10-01T12:37:52.219Z,1.80
2022-10-01T12:42:54.932Z,1.50
2022-10-01T12:47:16.075Z,1.23
2022-10-01T12:51:53.611Z,1.00
2022-10-01T12:56:10.483Z,0.90
2022-10-01T13:00:20.454Z,0.80
2022-10-01T13:04:37.734Z,1.00
2022-10-01T13:09:20.748Z,1.10
2022-10-01T13:13:57.386Z,1.27
2022-10-01T13:18:47.913Z,0.90
2022-10-01T13:39:32.106Z,0.90
2022-10-01T13:44:10.265Z,0.70
2022-10-01T13:48:31.377Z,0.80
2022-10-01T13:52:55.930Z,0.70
2022-10-01T13:57:26.067Z,0.77
2022-10-01T14:01:38.519Z,0.80
2022-10-01T14:05:43.076Z,0.70
2022-10-01T14:09:47.939Z,1.10
2022-10-01T14:14:59.590Z,1.10
2022-10-01T14:18:57.771Z,0.90
2022-10-01T14:23:16.033Z,0.70
2022-10-01T14:27:47.795Z,0.60
2022-10-01T14:32:08.472Z,0.80
2022-10-01T14:36:28.559Z,0.70
2022-10-01T14:40:48.883Z,0.97
2022-10-01T14:44:50.874Z,0.80
2022-10-01T14:49:01.855Z,0.93
2022-10-01T14:53:06.112Z,0.93
2022-10-01T14:57:24.789Z,0.90
2022-10-01T15:01:26.719Z,1.00
2022-10-01T15:05:34.228Z,0.90
2022-10-01T15:09:36.234Z,1.20
2022-10-01T15:13:40.238Z,0.90
2022-10-01T15:17:42.091Z,1.10
2022-10-01T15:22:04.130Z,0.90
2022-10-01T15:26:20.398Z,0.97
2022-10-01T15:30:22.731Z,1.20
2022-10-01T15:34:25.806Z,1.00
2022-10-01T15:38:30.985Z,0.80
2022-10-01T15:42:34.833Z,0.90
2022-10-01T15:46:37.234Z,1.30
2022-10-01T15:50:39.295Z,1.00
2022-10-01T15:54:45.431Z,1.13
2022-10-01T15:59:14.084Z,0.93
2022-10-01T16:08:34.535Z,0.70
2022-10-01T16:13:01.967Z,0.90
2022-10-01T16:17:17.034Z,0.80
2022-10-01T16:21:19.514Z,0.80
2022-10-01T16:25:25.078Z,1.17
2022-10-01T16:29:27.151Z,1.00
2022-10-01T16:33:31.736Z,1.43
2022-10-01T16:37:35.493Z,1.17
2022-10-01T16:42:23.486Z,1.00
2022-10-01T16:46:29.021Z,1.10
2022-10-01T16:50:31.125Z,1.00
2022-10-01T16:54:32.978Z,1.00
2022-10-01T16:59:27.869Z,1.37
2022-10-01T17:03:33.849Z,1.50
2022-10-01T17:07:46.789Z,1.40
2022-10-01T17:11:56.741Z,1.30
2022-10-01T17:15:59.174Z,1.23
2022-10-01T17:20:01.272Z,1.13
2022-10-01T17:24:03.645Z,1.10
2022-10-01T17:28:15.473Z,1.10
2022-10-01T17:32:24.884Z,0.80
2022-10-01T17:36:40.759Z,1.20
2022-10-01T17:41:21.665Z,1.20
2022-10-01T17:45:44.214Z,1.60
2022-10-01T17:49:49.544Z,1.33
2022-10-01T17:53:57.881Z,1.17
2022-10-01T17:58:17.739Z,1.13
2022-10-01T18:02:55.454Z,1.60
2022-10-01T18:06:59.796Z,1.20
2022-10-01T18:22:01.647Z,1.73
2022-10-01T18:31:50.887Z,1.63
2022-10-01T18:35:54.333Z,1.73
2022-10-01T18:40:27.961Z,1.23
2022-10-01T18:44:32.346Z,1.33
2022-10-01T18:49:02.505Z,1.53
2022-10-01T18:53:40.617Z,1.30
2022-10-01T18:57:47.540Z,1.10
2022-10-01T19:02:41.341Z,1.23
2022-10-01T19:07:03.038Z,1.20
2022-10-01T19:12:04.399Z,1.40
2022-10-01T19:16:37.581Z,2.20
2022-10-01T19:21:03.005Z,1.70
2022-10-01T19:25:53.598Z,1.23
2022-10-01T19:30:30.122Z,0.83
2022-10-01T19:35:00.461Z,1.30
2022-10-01T19:39:23.054Z,1.07
2022-10-01T19:43:45.650Z,1.40
2022-10-01T19:48:03.590Z,1.50
2022-10-01T19:52:18.380Z,1.07
2022-10-01T19:56:26.212Z,1.33
2022-10-01T20:00:28.157Z,1.20
2022-10-01T20:04:36.836Z,1.27
2022-10-01T20:09:30.937Z,1.10
2022-10-01T20:14:10.605Z,1.30
2022-10-01T20:18:37.585Z,1.23
2022-10-01T20:23:16.546Z,1.40
2022-10-01T20:27:33.267Z,1.30
2022-10-01T20:32:03.177Z,1.50
2022-10-01T20:36:17.134Z,1.70
2022-10-01T20:40:44.900Z,1.30
2022-10-01T20:44:46.709Z,1.17
2022-10-01T20:48:52.387Z,1.33
2022-10-01T20:53:53.186Z,1.10
2022-10-01T20:58:02.321Z,0.97
2022-10-01T21:02:42.112Z,1.33
2022-10-01T21:06:53.328Z,1.27
2022-10-01T21:10:59.530Z,1.20
2022-10-01T21:15:01.514Z,1.03
2022-10-01T21:19:14.133Z,1.10
2022-10-01T21:23:29.834Z,1.50
2022-10-01T21:28:28.092Z,1.20
2022-10-01T21:37:44.389Z,1.10
2022-10-01T21:42:14.741Z,1.17
2022-10-01T21:46:51.243Z,1.37
2022-10-01T21:51:01.287Z,1.20
2022-10-01T21:55:21.834Z,1.00
2022-10-01T21:59:35.209Z,1.47
2022-10-01T22:04:18.193Z,1.40
2022-10-01T22:08:25.779Z,1.17
2022-10-01T22:12:28.723Z,1.20
2022-10-01T22:16:46.028Z,1.20
2022-10-01T22:20:48.166Z,1.10
2022-10-01T22:24:52.799Z,1.33
2022-10-01T22:28:55.083Z,1.40
2022-10-01T22:33:03.242Z,1.13
2022-10-01T22:37:18.660Z,1.13
2022-10-01T22:41:46.440Z,1.27
2022-10-01T22:46:28.488Z,1.70
2022-10-01T22:50:54.327Z,1.00
2022-10-01T22:55:11.075Z,1.00
2022-10-01T22:59:50.433Z,1.63
2022-10-01T23:04:03.143Z,1.07
2022-10-01T23:08:33.689Z,1.03
2022-10-01T23:13:23.968Z,1.00
2022-10-01T23:18:02.252Z,1.40
2022-10-01T23:22:35.676Z,1.17
2022-10-01T23:27:08.689Z,1.10
2022-10-01T23:31:36.643Z,1.03
2022-10-01T23:35:52.905Z,1.30
2022-10-01T23:40:13.102Z,1.33
2022-10-01T23:44:25.497Z,1.60
2022-10-01T23:48:30.407Z,1.23
2022-10-01T23:52:45.687Z,1.50
2022-10-01T23:57:02.957Z,1.20
